Time;durP1;ratioP1;P1;durP2;ratioP2;P2;SDS_P1;SDS_P2;PMS_P1;PMS_P2;Temp;Humidity;BMP_temperature;BMP_pressure;BME280_temperature;BME280_humidity;BME280_pressure;Samples;Min_cycle;Max_cycle;Signal;HPM_P1;HPM_P2
2023/06/02 00:01:06;;;;;;;13.15;2.40;;;10.00;99.90;;;;;;5093836;28;20044;-47
2023/06/02 00:03:34;;;;;;;20.10;2.30;;;9.90;99.90;;;;;;5092214;28;20044;-48
2023/06/02 00:06:01;;;;;;;17.02;3.10;;;10.10;99.90;;;;;;5094962;28;20111;-49
2023/06/02 00:08:27;;;;;;;18.65;2.83;;;10.00;99.90;;;;;;5093135;28;20047;-48
2023/06/02 00:10:53;;;;;;;12.68;2.65;;;9.50;99.90;;;;;;5094050;28;20159;-49
2023/06/02 00:13:20;;;;;;;15.93;2.70;;;10.10;99.90;;;;;;5092995;28;20130;-47
2023/06/02 00:15:46;;;;;;;20.80;4.10;;;10.00;99.90;;;;;;5095023;28;20044;-47
2023/06/02 00:18:12;;;;;;;19.33;3.25;;;9.90;99.90;;;;;;5092830;28;20350;-50
2023/06/02 00:20:38;;;;;;;14.30;3.05;;;10.00;99.90;;;;;;5093368;28;20393;-47
2023/06/02 00:23:04;;;;;;;16.42;2.85;;;9.90;99.90;;;;;;5092779;28;20096;-48
2023/06/02 00:25:30;;;;;;;18.80;2.65;;;9.90;99.90;;;;;;5097618;28;20035;-47
2023/06/02 00:27:57;;;;;;;15.25;2.78;;;9.90;99.90;;;;;;5075546;28;20051;-47
2023/06/02 00:30:23;;;;;;;17.38;2.38;;;10.00;99.90;;;;;;5073783;28;20055;-50
2023/06/02 00:32:48;;;;;;;18.30;3.13;;;10.10;99.90;;;;;;5074859;28;20414;-50
2023/06/02 00:35:14;;;;;;;15.80;2.85;;;9.90;99.90;;;;;;5093805;28;20748;-47
2023/06/02 00:37:40;;;;;;;13.48;2.65;;;10.00;99.90;;;;;;5076659;28;20062;-48
2023/06/02 00:40:07;;;;;;;10.02;2.20;;;10.10;99.90;;;;;;5094633;28;20037;-48
2023/06/02 00:42:32;;;;;;;14.95;2.63;;;9.80;99.90;;;;;;5092714;28;20122;-48
2023/06/02 00:44:58;;;;;;;14.20;2.38;;;9.90;99.90;;;;;;5074759;28;20121;-51
2023/06/02 00:47:24;;;;;;;14.23;2.83;;;10.00;99.90;;;;;;5095604;28;20044;-49
2023/06/02 00:49:50;;;;;;;15.55;3.17;;;9.80;99.90;;;;;;5093944;28;20109;-48
2023/06/02 00:52:17;;;;;;;16.77;3.00;;;9.90;99.90;;;;;;5093749;28;20036;-47
2023/06/02 00:54:43;;;;;;;16.55;2.95;;;10.00;99.90;;;;;;5095421;28;20051;-50
2023/06/02 00:57:09;;;;;;;12.02;2.40;;;10.00;99.90;;;;;;5092908;28;20600;-47
2023/06/02 00:59:38;;;;;;;13.32;3.17;;;9.80;99.90;;;;;;5093020;28;20147;-50
2023/06/02 01:02:05;;;;;;;17.77;2.75;;;9.90;99.90;;;;;;5094031;28;20150;-47
2023/06/02 01:04:31;;;;;;;20.02;2.72;;;9.90;99.90;;;;;;5092377;28;20456;-49
2023/06/02 01:07:02;;;;;;;16.60;2.83;;;9.90;99.90;;;;;;5092729;28;20067;-47
2023/06/02 01:09:29;;;;;;;13.95;2.58;;;9.90;99.90;;;;;;5091174;28;20404;-47
2023/06/02 01:11:56;;;;;;;24.92;3.42;;;10.00;99.90;;;;;;5092632;28;20699;-50
2023/06/02 01:14:22;;;;;;;12.85;3.22;;;9.90;99.90;;;;;;5093682;28;20113;-47
2023/06/02 01:16:51;;;;;;;18.90;3.03;;;9.90;99.90;;;;;;5091507;28;20039;-47
2023/06/02 01:19:20;;;;;;;20.77;3.20;;;9.70;99.90;;;;;;5090968;28;20050;-47
2023/06/02 01:21:57;;;;;;;19.08;3.13;;;9.70;99.90;;;;;;5092484;28;20433;-47
2023/06/02 01:24:38;;;;;;;13.77;2.55;;;9.90;99.90;;;;;;5093995;28;20042;-47
2023/06/02 01:27:06;;;;;;;20.38;2.70;;;9.80;99.90;;;;;;5093064;28;20039;-47
2023/06/02 01:29:35;;;;;;;17.10;3.42;;;9.90;99.90;;;;;;5073858;28;20040;-48
2023/06/02 01:32:05;;;;;;;19.60;3.28;;;9.80;99.90;;;;;;5091969;28;20048;-52
2023/06/02 01:34:41;;;;;;;13.82;3.63;;;9.90;99.90;;;;;;5092015;28;20039;-47
2023/06/02 01:37:08;;;;;;;19.25;4.43;;;11.20;99.90;;;;;;5090771;28;20273;-50
2023/06/02 01:39:34;;;;;;;16.67;3.05;;;9.80;99.90;;;;;;5091400;28;20093;-49
2023/06/02 01:42:03;;;;;;;15.98;2.65;;;9.80;99.90;;;;;;5092304;28;20076;-48
2023/06/02 01:44:30;;;;;;;15.35;2.95;;;10.00;99.90;;;;;;5092836;28;20055;-47
2023/06/02 01:46:57;;;;;;;17.27;3.33;;;9.80;99.90;;;;;;5091482;28;20044;-48
2023/06/02 01:49:22;;;;;;;15.38;2.78;;;9.70;99.90;;;;;;5073871;28;20411;-47
2023/06/02 01:51:48;;;;;;;17.70;2.67;;;9.90;99.90;;;;;;5092692;28;20052;-47
2023/06/02 01:54:14;;;;;;;15.35;2.92;;;9.70;99.90;;;;;;5093462;28;20035;-48
2023/06/02 01:56:40;;;;;;;18.40;2.53;;;9.70;99.90;;;;;;5091952;28;20131;-46
2023/06/02 01:59:07;;;;;;;19.20;2.80;;;9.80;99.90;;;;;;5091116;28;20135;-47
2023/06/02 02:01:33;;;;;;;12.70;2.63;;;9.70;99.90;;;;;;5092076;28;20144;-48
2023/06/02 02:04:00;;;;;;;16.00;3.10;;;9.70;99.90;;;;;;5094074;28;20810;-49
2023/06/02 02:06:34;;;;;;;10.68;2.35;;;9.70;99.90;;;;;;5091874;28;20146;-48
2023/06/02 02:09:00;;;;;;;19.67;3.40;;;9.60;99.90;;;;;;5092993;28;20055;-47
2023/06/02 02:11:27;;;;;;;23.13;3.53;;;9.70;99.90;;;;;;5092302;28;20396;-46
2023/06/02 02:13:54;;;;;;;16.70;3.30;;;9.50;99.90;;;;;;5092348;28;20040;-49
2023/06/02 02:16:20;;;;;;;22.02;3.15;;;9.70;99.90;;;;;;5092560;28;21110;-49
2023/06/02 02:18:46;;;;;;;17.83;2.92;;;9.60;99.90;;;;;;5093367;28;20051;-49
2023/06/02 02:21:15;;;;;;;14.43;2.83;;;10.00;99.90;;;;;;5092998;28;20040;-51
2023/06/02 02:23:40;;;;;;;21.73;3.65;;;9.70;99.90;;;;;;5093875;28;20036;-52
2023/06/02 02:26:06;;;;;;;18.63;3.35;;;9.70;99.90;;;;;;5090600;28;20061;-50
2023/06/02 02:28:32;;;;;;;28.38;4.68;;;9.60;99.90;;;;;;5072537;28;20035;-50
2023/06/02 02:30:58;;;;;;;17.58;3.42;;;9.60;99.90;;;;;;5091075;28;20042;-52
2023/06/02 02:33:25;;;;;;;17.45;2.95;;;9.70;99.90;;;;;;5074048;28;20040;-49
2023/06/02 02:35:53;;;;;;;18.42;3.58;;;9.70;99.90;;;;;;5071358;28;20191;-52
2023/06/02 02:38:19;;;;;;;18.08;2.63;;;9.80;99.90;;;;;;5090415;28;20051;-50
2023/06/02 02:40:45;;;;;;;17.02;2.97;;;9.90;99.90;;;;;;5091633;28;20047;-50
2023/06/02 02:43:11;;;;;;;21.77;3.60;;;11.00;99.90;;;;;;5091391;28;20051;-47
2023/06/02 02:45:37;;;;;;;15.77;3.10;;;9.60;99.90;;;;;;5090489;28;20108;-52
2023/06/02 02:48:03;;;;;;;25.42;4.88;;;9.70;99.90;;;;;;5090205;28;20043;-50
2023/06/02 02:50:29;;;;;;;14.75;3.22;;;9.80;99.90;;;;;;5090086;28;20642;-49
2023/06/02 02:52:55;;;;;;;16.95;3.08;;;9.80;99.90;;;;;;5091939;28;20039;-53
2023/06/02 02:55:21;;;;;;;17.90;3.08;;;9.70;99.90;;;;;;5091206;28;20043;-51
2023/06/02 02:57:47;;;;;;;19.02;3.33;;;9.80;99.90;;;;;;5090480;28;20409;-49
2023/06/02 03:00:13;;;;;;;22.30;3.65;;;9.50;99.90;;;;;;5091896;28;20051;-50
2023/06/02 03:02:40;;;;;;;14.55;3.30;;;9.60;99.90;;;;;;5091529;28;20039;-48
2023/06/02 03:05:06;;;;;;;22.65;3.60;;;9.70;99.90;;;;;;5090248;28;20044;-50
2023/06/02 03:07:34;;;;;;;21.35;3.08;;;9.80;99.90;;;;;;5091901;28;20051;-51
2023/06/02 03:10:00;;;;;;;21.98;3.88;;;9.70;99.90;;;;;;5089577;28;20611;-50
2023/06/02 03:12:26;;;;;;;21.67;3.22;;;9.80;99.90;;;;;;5092189;28;20550;-51
2023/06/02 03:14:52;;;;;;;25.70;3.90;;;9.80;99.90;;;;;;5090777;28;20075;-51
2023/06/02 03:17:19;;;;;;;20.45;2.95;;;9.80;99.90;;;;;;5092674;28;20503;-49
2023/06/02 03:19:45;;;;;;;21.65;3.17;;;9.80;99.90;;;;;;5091984;28;20575;-52
2023/06/02 03:22:11;;;;;;;16.02;2.80;;;10.00;99.90;;;;;;5095120;28;20050;-50
2023/06/02 03:24:37;;;;;;;25.50;3.38;;;9.70;99.90;;;;;;5095220;28;20036;-51
2023/06/02 03:27:03;;;;;;;21.20;3.90;;;9.90;99.90;;;;;;5095589;28;20043;-48
2023/06/02 03:29:29;;;;;;;16.13;3.55;;;9.70;99.90;;;;;;5096049;28;20043;-50
2023/06/02 03:31:55;;;;;;;23.98;4.18;;;9.90;99.90;;;;;;5095287;28;20036;-47
2023/06/02 03:34:22;;;;;;;18.10;4.05;;;11.40;99.90;;;;;;5095850;28;20048;-48
2023/06/02 03:36:51;;;;;;;18.85;3.25;;;9.90;99.90;;;;;;5094874;28;20044;-50
2023/06/02 03:39:16;;;;;;;17.48;2.90;;;9.80;99.90;;;;;;5094141;28;20144;-51
2023/06/02 03:41:42;;;;;;;21.42;3.33;;;10.00;99.90;;;;;;5095381;28;20134;-50
2023/06/02 03:44:08;;;;;;;23.60;3.53;;;9.90;99.90;;;;;;5095755;28;20066;-51
2023/06/02 03:46:34;;;;;;;20.30;3.70;;;10.00;99.90;;;;;;5092852;28;20075;-49
2023/06/02 03:49:00;;;;;;;25.45;3.92;;;10.10;99.90;;;;;;5094391;28;20420;-51
2023/06/02 03:51:25;;;;;;;21.88;3.28;;;9.90;99.90;;;;;;5092504;28;20544;-50
2023/06/02 03:53:51;;;;;;;18.85;3.60;;;10.00;99.90;;;;;;5093840;28;20032;-48
2023/06/02 03:56:19;;;;;;;28.92;4.82;;;10.00;99.90;;;;;;5094066;28;20080;-51
2023/06/02 03:58:45;;;;;;;13.00;3.53;;;10.00;99.90;;;;;;5093966;28;20127;-50
2023/06/02 04:01:12;;;;;;;18.10;2.85;;;10.00;99.90;;;;;;5094220;28;20625;-49
2023/06/02 04:03:41;;;;;;;25.02;4.10;;;10.30;99.90;;;;;;5075672;28;20031;-50
2023/06/02 04:06:07;;;;;;;20.77;4.10;;;10.10;99.90;;;;;;5075392;28;20044;-53
2023/06/02 04:08:33;;;;;;;19.85;3.28;;;10.20;99.90;;;;;;5094015;28;20074;-51
2023/06/02 04:10:59;;;;;;;20.17;3.60;;;10.20;99.90;;;;;;5092905;28;20048;-47
2023/06/02 04:13:25;;;;;;;24.75;3.33;;;10.10;99.90;;;;;;5094102;28;20054;-48
2023/06/02 04:15:51;;;;;;;21.50;4.45;;;10.20;99.90;;;;;;5092860;28;20134;-48
2023/06/02 04:18:17;;;;;;;19.63;3.85;;;10.30;99.90;;;;;;5092431;28;20035;-51
2023/06/02 04:20:42;;;;;;;21.88;3.63;;;10.20;99.90;;;;;;5093605;28;20039;-47
2023/06/02 04:23:08;;;;;;;20.33;3.33;;;10.30;99.90;;;;;;5094258;28;20504;-48
2023/06/02 04:25:34;;;;;;;28.58;3.67;;;10.40;99.90;;;;;;5095126;28;20045;-51
2023/06/02 04:28:00;;;;;;;16.80;3.78;;;10.30;99.90;;;;;;5092909;28;20044;-47
2023/06/02 04:30:26;;;;;;;22.25;3.58;;;10.30;99.90;;;;;;5091698;28;20054;-51
2023/06/02 04:32:52;;;;;;;31.38;7.07;;;10.20;99.90;;;;;;5093175;28;20039;-48
2023/06/02 04:35:18;;;;;;;21.40;4.50;;;10.20;99.90;;;;;;5093147;28;20856;-50
2023/06/02 04:37:45;;;;;;;23.77;3.60;;;10.20;99.90;;;;;;5093624;28;20043;-49
2023/06/02 04:40:11;;;;;;;24.02;4.47;;;10.40;99.90;;;;;;5073858;28;20036;-51
2023/06/02 04:42:38;;;;;;;21.55;3.22;;;10.40;99.90;;;;;;5094410;28;20047;-51
2023/06/02 04:45:12;;;;;;;19.88;3.40;;;10.40;99.90;;;;;;5093423;28;20044;-60
2023/06/02 04:47:42;;;;;;;20.85;4.07;;;12.00;99.90;;;;;;5076007;28;20042;-50
2023/06/02 04:50:09;;;;;;;25.45;3.45;;;10.50;99.90;;;;;;5075235;28;20043;-51
2023/06/02 04:52:41;;;;;;;18.08;3.22;;;10.50;99.90;;;;;;5092222;28;20462;-51
2023/06/02 04:55:08;;;;;;;15.85;3.05;;;10.60;99.90;;;;;;5094769;28;20286;-48
2023/06/02 04:57:35;;;;;;;25.75;3.42;;;10.60;99.90;;;;;;5093231;28;20098;-47
2023/06/02 05:00:03;;;;;;;20.80;4.95;;;10.70;99.90;;;;;;5093134;28;20127;-47
2023/06/02 05:02:30;;;;;;;18.75;3.40;;;10.70;99.90;;;;;;5093710;28;20051;-49
2023/06/02 05:04:56;;;;;;;24.85;3.63;;;10.80;99.90;;;;;;5090538;28;20118;-49
2023/06/02 05:07:21;;;;;;;18.67;3.65;;;10.60;99.90;;;;;;5092155;28;20036;-49
2023/06/02 05:09:47;;;;;;;22.17;3.55;;;10.80;99.90;;;;;;5091080;28;20130;-47
2023/06/02 05:12:15;;;;;;;18.75;3.80;;;10.90;99.90;;;;;;5092549;28;20082;-48
2023/06/02 05:14:42;;;;;;;26.73;3.75;;;10.80;99.90;;;;;;5092198;28;20663;-50
2023/06/02 05:17:08;;;;;;;20.80;3.80;;;10.70;99.90;;;;;;5091782;28;20059;-46
2023/06/02 05:19:35;;;;;;;25.77;5.10;;;10.80;99.90;;;;;;5073985;28;20066;-46
2023/06/02 05:22:02;;;;;;;21.48;3.60;;;10.80;99.90;;;;;;5091351;28;20040;-51
2023/06/02 05:24:29;;;;;;;21.23;4.15;;;10.90;99.90;;;;;;5090807;28;20085;-47
2023/06/02 05:26:54;;;;;;;23.40;3.92;;;10.90;99.90;;;;;;5093255;28;20048;-46
2023/06/02 05:29:20;;;;;;;16.83;3.85;;;11.00;99.90;;;;;;5091266;28;20495;-48
2023/06/02 05:31:46;;;;;;;16.27;3.55;;;10.90;99.90;;;;;;5071672;28;20845;-49
2023/06/02 05:34:12;;;;;;;17.33;3.38;;;11.00;99.90;;;;;;5090425;28;20391;-48
2023/06/02 05:36:37;;;;;;;25.80;4.70;;;11.10;99.90;;;;;;5091539;28;20051;-48
2023/06/02 05:39:03;;;;;;;20.50;3.55;;;11.00;99.90;;;;;;5092399;28;20090;-51
2023/06/02 05:41:29;;;;;;;23.60;4.97;;;11.10;99.90;;;;;;5091821;28;20524;-46
2023/06/02 05:43:55;;;;;;;16.55;3.15;;;11.00;99.90;;;;;;5089072;28;20059;-51
2023/06/02 05:46:22;;;;;;;17.05;3.28;;;11.10;99.90;;;;;;5092598;28;20059;-52
2023/06/02 05:48:48;;;;;;;16.75;3.28;;;11.20;99.90;;;;;;5091744;28;21811;-49
2023/06/02 05:51:14;;;;;;;20.00;3.67;;;11.30;99.90;;;;;;5093000;28;20383;-49
2023/06/02 05:53:39;;;;;;;23.25;3.78;;;11.30;99.90;;;;;;5073379;28;20146;-46
2023/06/02 05:56:05;;;;;;;20.45;3.72;;;11.50;99.90;;;;;;5093370;28;20761;-47
2023/06/02 05:58:31;;;;;;;21.08;3.70;;;11.40;99.90;;;;;;5092688;28;20355;-47
2023/06/02 06:00:57;;;;;;;20.58;3.90;;;11.50;99.90;;;;;;5091581;28;20039;-51
2023/06/02 06:03:23;;;;;;;19.60;5.32;;;11.50;99.90;;;;;;5092202;28;20235;-49
2023/06/02 06:05:49;;;;;;;19.90;4.50;;;11.70;99.90;;;;;;5093001;28;20306;-49
2023/06/02 06:08:14;;;;;;;29.08;4.93;;;11.60;99.90;;;;;;5091737;28;20127;-48
2023/06/02 06:10:43;;;;;;;24.48;4.40;;;11.80;99.90;;;;;;5090575;28;20500;-52
2023/06/02 06:13:09;;;;;;;18.40;4.10;;;11.80;99.90;;;;;;5090234;28;20176;-49
2023/06/02 06:15:35;;;;;;;21.40;4.65;;;11.90;99.90;;;;;;5090795;28;21367;-47
2023/06/02 06:18:00;;;;;;;26.55;4.65;;;11.90;99.90;;;;;;5091484;28;20040;-52
2023/06/02 06:20:26;;;;;;;25.92;4.55;;;12.20;99.90;;;;;;5090085;28;20047;-47
2023/06/02 06:22:52;;;;;;;24.10;4.18;;;12.20;99.90;;;;;;5089250;28;20040;-48
2023/06/02 06:25:18;;;;;;;25.30;4.45;;;12.20;99.90;;;;;;5091146;28;20047;-47
2023/06/02 06:27:43;;;;;;;17.13;4.15;;;12.30;99.90;;;;;;5072967;28;20039;-47
2023/06/02 06:30:10;;;;;;;28.25;4.63;;;12.20;99.90;;;;;;5090287;28;20058;-47
2023/06/02 06:32:35;;;;;;;23.27;3.90;;;12.30;99.90;;;;;;5090285;28;20569;-51
2023/06/02 06:35:01;;;;;;;22.75;4.28;;;12.40;99.90;;;;;;5090751;28;20051;-49
2023/06/02 06:37:30;;;;;;;24.17;4.35;;;12.40;99.90;;;;;;5089630;28;20042;-47
2023/06/02 06:39:56;;;;;;;28.52;4.75;;;12.50;99.90;;;;;;5089821;28;20066;-46
2023/06/02 06:42:22;;;;;;;23.40;4.00;;;12.40;99.90;;;;;;5089224;28;20032;-47
2023/06/02 06:44:49;;;;;;;26.63;5.45;;;12.40;99.90;;;;;;5090253;28;20043;-48
2023/06/02 06:47:15;;;;;;;27.55;4.43;;;11.80;99.90;;;;;;5090563;28;20043;-48
2023/06/02 06:49:41;;;;;;;37.95;5.10;;;12.50;99.90;;;;;;5068026;28;20039;-47
2023/06/02 06:52:07;;;;;;;20.95;3.70;;;12.60;99.90;;;;;;5089250;28;20036;-48
2023/06/02 06:54:32;;;;;;;19.75;4.35;;;12.70;99.90;;;;;;5090323;28;20051;-49
2023/06/02 06:56:58;;;;;;;25.33;4.55;;;12.80;99.90;;;;;;5091265;28;20043;-49
2023/06/02 06:59:24;;;;;;;32.80;5.25;;;12.90;99.90;;;;;;5091346;28;20047;-48
2023/06/02 07:01:50;;;;;;;23.92;4.95;;;12.90;99.90;;;;;;5090001;28;20100;-47
2023/06/02 07:04:17;;;;;;;24.15;4.72;;;12.90;99.90;;;;;;5073217;28;20040;-47
2023/06/02 07:06:43;;;;;;;23.40;4.60;;;13.10;99.90;;;;;;5072616;28;20846;-51
2023/06/02 07:09:10;;;;;;;30.00;6.15;;;13.30;99.90;;;;;;5090612;28;20042;-49
2023/06/02 07:11:36;;;;;;;25.05;4.70;;;13.70;99.90;;;;;;5089713;28;20501;-49
2023/06/02 07:14:02;;;;;;;19.98;4.97;;;13.90;99.90;;;;;;5092184;28;20051;-47
2023/06/02 07:16:28;;;;;;;28.02;4.15;;;13.90;99.90;;;;;;5090513;28;20043;-51
2023/06/02 07:18:53;;;;;;;23.90;4.25;;;14.20;99.90;;;;;;5091547;28;20214;-48
2023/06/02 07:21:20;;;;;;;24.02;4.75;;;15.10;99.90;;;;;;5090513;28;20602;-51
2023/06/02 07:23:45;;;;;;;20.40;4.18;;;15.50;99.90;;;;;;5091020;28;20762;-51
2023/06/02 07:26:11;;;;;;;28.63;3.75;;;15.70;99.90;;;;;;5091005;28;20036;-52
2023/06/02 07:28:38;;;;;;;21.05;4.07;;;16.40;99.90;;;;;;5073660;28;20052;-53
2023/06/02 07:31:05;;;;;;;21.55;4.30;;;17.10;99.90;;;;;;5090817;28;20416;-56
2023/06/02 07:33:30;;;;;;;20.10;4.13;;;17.60;99.90;;;;;;5092022;28;20051;-53
2023/06/02 07:35:56;;;;;;;22.40;3.97;;;17.50;99.90;;;;;;5090898;28;20035;-53
2023/06/02 07:38:22;;;;;;;22.60;4.35;;;17.00;99.90;;;;;;5090283;28;20047;-52
2023/06/02 07:40:48;;;;;;;20.75;4.07;;;17.00;99.90;;;;;;5072669;28;20120;-53
2023/06/02 07:43:14;;;;;;;23.75;3.65;;;16.40;99.90;;;;;;5091051;28;20060;-53
2023/06/02 07:45:40;;;;;;;19.60;3.80;;;16.10;99.90;;;;;;5090529;28;20131;-53
2023/06/02 07:48:06;;;;;;;16.38;3.22;;;15.90;99.90;;;;;;5089910;28;20043;-54
2023/06/02 07:50:31;;;;;;;17.02;4.50;;;17.40;99.90;;;;;;5090106;28;20900;-52
2023/06/02 07:52:57;;;;;;;19.55;4.32;;;18.60;99.90;;;;;;5091297;28;20677;-51
2023/06/02 07:55:24;;;;;;;19.95;3.65;;;18.60;99.90;;;;;;5089102;28;20033;-52
2023/06/02 07:57:51;;;;;;;14.68;3.20;;;17.90;99.90;;;;;;5091413;28;20090;-53
2023/06/02 08:00:18;;;;;;;13.57;2.92;;;18.50;99.90;;;;;;5088430;28;20447;-53
2023/06/02 08:02:48;;;;;;;19.70;3.63;;;18.70;99.90;;;;;;5090326;28;20291;-54
2023/06/02 08:05:17;;;;;;;15.60;3.50;;;18.50;99.90;;;;;;5090633;28;20051;-53
2023/06/02 08:07:44;;;;;;;15.02;3.10;;;18.10;99.90;;;;;;5093098;28;20052;-54
2023/06/02 08:10:10;;;;;;;18.67;4.25;;;18.30;99.90;;;;;;5094743;28;20050;-54
2023/06/02 08:12:37;;;;;;;10.80;3.10;;;19.20;99.90;;;;;;5092589;28;20027;-54
2023/06/02 08:15:04;;;;;;;16.27;3.15;;;19.90;99.90;;;;;;5094234;28;20629;-55
2023/06/02 08:17:29;;;;;;;14.93;3.20;;;20.80;99.90;;;;;;5094571;28;20043;-55
2023/06/02 08:20:00;;;;;;;13.52;2.90;;;20.90;99.90;;;;;;5094144;28;20032;-55
2023/06/02 08:22:27;;;;;;;13.43;3.40;;;20.50;99.90;;;;;;5075139;28;20143;-54
2023/06/02 08:24:56;;;;;;;12.70;3.13;;;20.30;99.90;;;;;;5093762;28;20709;-55
2023/06/02 08:27:23;;;;;;;14.15;3.22;;;20.30;99.90;;;;;;5095448;28;20043;-55
2023/06/02 08:29:53;;;;;;;15.27;3.60;;;20.10;99.90;;;;;;5093895;28;20438;-55
2023/06/02 08:32:22;;;;;;;12.80;2.83;;;19.50;99.90;;;;;;5093376;28;20047;-55
2023/06/02 08:34:50;;;;;;;17.77;2.80;;;19.20;99.90;;;;;;5094716;28;20075;-56
2023/06/02 08:37:20;;;;;;;11.18;2.80;;;19.50;99.90;;;;;;5093789;28;20051;-55
2023/06/02 08:39:47;;;;;;;15.50;2.92;;;19.70;99.90;;;;;;5093098;28;20047;-55
2023/06/02 08:42:15;;;;;;;11.68;2.40;;;19.60;99.90;;;;;;5094092;28;20039;-55
2023/06/02 08:44:42;;;;;;;10.00;2.22;;;19.90;99.90;;;;;;5077025;28;20058;-56
2023/06/02 08:47:11;;;;;;;12.75;2.28;;;19.60;99.90;;;;;;5093152;28;20090;-54
2023/06/02 08:49:46;;;;;;;10.52;2.10;;;18.80;99.90;;;;;;5093948;28;20046;-55
2023/06/02 08:52:16;;;;;;;9.05;2.00;;;18.80;99.90;;;;;;5093668;28;20255;-55
2023/06/02 08:54:42;;;;;;;12.25;2.10;;;19.10;99.90;;;;;;5094576;28;20135;-54
2023/06/02 08:57:12;;;;;;;13.48;2.67;;;19.50;99.90;;;;;;5093691;28;20040;-53
2023/06/02 08:59:39;;;;;;;10.02;1.85;;;20.20;99.90;;;;;;5094048;28;20752;-55
2023/06/02 09:02:06;;;;;;;9.50;1.92;;;20.30;99.90;;;;;;5073863;28;20051;-51
2023/06/02 09:04:31;;;;;;;12.63;1.92;;;20.20;99.90;;;;;;5091276;28;20192;-48
2023/06/02 09:07:12;;;;;;;11.32;2.22;;;20.40;99.90;;;;;;5092293;28;20032;-52
2023/06/02 09:09:39;;;;;;;7.13;1.92;;;20.50;99.90;;;;;;5090197;28;20373;-53
2023/06/02 09:12:08;;;;;;;12.15;2.53;;;20.60;99.90;;;;;;5090086;28;20044;-52
2023/06/02 09:14:37;;;;;;;8.23;1.52;;;20.60;99.90;;;;;;5092076;28;20059;-50
2023/06/02 09:17:04;;;;;;;9.20;1.85;;;20.80;99.90;;;;;;5090870;28;20147;-52
2023/06/02 09:19:50;;;;;;;9.95;2.03;;;20.50;99.90;;;;;;5072892;28;20703;-51
2023/06/02 09:22:16;;;;;;;9.68;2.42;;;19.60;99.90;;;;;;5090887;28;20423;-52
2023/06/02 09:24:41;;;;;;;10.30;2.35;;;19.50;99.90;;;;;;5092702;28;20045;-52
2023/06/02 09:27:15;;;;;;;13.32;2.13;;;19.10;99.90;;;;;;5094640;28;20044;-52
2023/06/02 09:29:42;;;;;;;11.90;2.20;;;19.10;99.90;;;;;;5091297;28;20407;-52
2023/06/02 09:32:26;;;;;;;5.82;1.80;;;18.70;99.90;;;;;;5092264;28;20399;-53
2023/06/02 09:34:52;;;;;;;8.88;1.75;;;18.70;99.90;;;;;;5091665;28;20232;-51
2023/06/02 09:37:18;;;;;;;6.28;1.70;;;18.60;99.90;;;;;;5091159;28;20039;-53
2023/06/02 09:39:49;;;;;;;9.50;1.80;;;18.70;99.90;;;;;;5091066;28;20063;-50
2023/06/02 09:42:17;;;;;;;9.20;2.25;;;18.80;99.90;;;;;;5092467;28;20054;-51
2023/06/02 09:45:07;;;;;;;9.02;2.00;;;18.90;99.90;;;;;;5090881;28;20064;-51
2023/06/02 09:47:38;;;;;;;9.95;3.10;;;18.90;99.90;;;;;;5092360;28;20078;-52
2023/06/02 09:50:04;;;;;;;9.25;2.65;;;19.00;99.90;;;;;;5091896;28;20043;-51
2023/06/02 09:52:31;;;;;;;7.20;1.55;;;19.00;99.90;;;;;;5090859;28;20036;-54
2023/06/02 09:54:57;;;;;;;7.97;2.13;;;19.20;99.90;;;;;;5092618;28;20044;-52
2023/06/02 09:57:24;;;;;;;10.25;2.13;;;18.80;99.90;;;;;;5094310;28;20059;-52
2023/06/02 09:59:51;;;;;;;11.30;2.15;;;18.90;99.90;;;;;;5091518;28;20079;-51
2023/06/02 10:02:17;;;;;;;6.82;1.60;;;19.30;99.90;;;;;;5091128;28;20381;-52
2023/06/02 10:04:45;;;;;;;7.95;2.05;;;19.50;99.90;;;;;;5090663;28;20480;-53
2023/06/02 10:07:23;;;;;;;9.93;2.00;;;19.40;99.90;;;;;;5091578;28;20048;-50
2023/06/02 10:09:58;;;;;;;8.93;1.90;;;19.50;99.90;;;;;;5072438;28;20920;-52
2023/06/02 10:13:06;;;;;;;3.88;1.40;;;19.50;99.90;;;;;;5093340;28;20469;-51
2023/06/02 10:15:43;;;;;;;5.15;1.38;;;19.60;99.90;;;;;;5093704;28;20112;-50
2023/06/02 10:18:21;;;;;;;4.82;1.30;;;19.80;99.90;;;;;;5073479;28;20396;-51
2023/06/02 10:21:11;;;;;;;5.60;1.23;;;19.70;99.90;;;;;;5091436;28;20035;-51
2023/06/02 10:23:47;;;;;;;7.97;1.40;;;19.40;99.90;;;;;;5093477;28;20134;-49
2023/06/02 10:26:45;;;;;;;7.57;1.80;;;19.60;99.90;;;;;;5091308;28;20039;-50
2023/06/02 10:29:13;;;;;;;5.85;1.20;;;19.70;99.90;;;;;;5092589;28;20039;-53
2023/06/02 10:31:41;;;;;;;6.95;1.90;;;19.70;99.90;;;;;;5093468;28;20043;-49
2023/06/02 10:34:07;;;;;;;8.73;1.80;;;19.70;99.90;;;;;;5092177;28;20071;-48
2023/06/02 10:37:01;;;;;;;5.57;1.50;;;19.80;99.90;;;;;;5090685;28;20127;-47
2023/06/02 10:39:39;;;;;;;8.27;1.63;;;19.90;99.90;;;;;;5091453;28;20044;-49
2023/06/02 10:42:06;;;;;;;5.97;1.30;;;19.70;99.90;;;;;;5092542;28;20419;-49
2023/06/02 10:44:32;;;;;;;4.95;1.05;;;20.00;99.90;;;;;;5091865;28;20573;-48
2023/06/02 10:47:18;;;;;;;3.65;0.90;;;19.70;99.90;;;;;;5091463;28;20051;-51
2023/06/02 10:49:55;;;;;;;3.72;1.30;;;19.90;99.90;;;;;;5055042;28;20047;-46
2023/06/02 10:52:21;;;;;;;4.95;1.10;;;20.10;99.90;;;;;;5091345;28;20114;-50
2023/06/02 10:55:12;;;;;;;6.50;1.10;;;19.80;99.90;;;;;;5090593;28;20101;-48
2023/06/02 10:57:57;;;;;;;5.15;1.30;;;19.40;99.90;;;;;;5092136;28;20047;-49
2023/06/02 11:00:32;;;;;;;3.30;1.13;;;19.70;99.90;;;;;;5090559;28;20046;-46
2023/06/02 11:03:17;;;;;;;3.65;0.80;;;19.60;99.90;;;;;;5090655;28;20036;-47
2023/06/02 11:05:45;;;;;;;6.35;1.10;;;19.80;99.90;;;;;;5090099;28;20123;-49
2023/06/02 11:08:21;;;;;;;3.38;1.00;;;19.80;99.90;;;;;;5091162;28;20067;-48
2023/06/02 11:10:58;;;;;;;5.07;1.35;;;19.90;99.90;;;;;;5089418;28;20060;-50
2023/06/02 11:13:25;;;;;;;3.67;1.42;;;19.80;99.90;;;;;;5088417;28;20387;-49
2023/06/02 11:15:58;;;;;;;5.28;1.30;;;19.80;99.90;;;;;;5089667;28;20047;-47
2023/06/02 11:18:27;;;;;;;9.52;1.77;;;20.20;99.90;;;;;;5091174;28;20051;-48
2023/06/02 11:20:54;;;;;;;4.93;1.42;;;20.10;99.90;;;;;;5088556;28;20488;-49
2023/06/02 11:23:20;;;;;;;7.22;1.77;;;19.80;99.90;;;;;;5088477;28;20039;-48
2023/06/02 11:25:47;;;;;;;7.55;1.80;;;19.90;99.90;;;;;;5090576;28;20048;-51
2023/06/02 11:28:20;;;;;;;6.55;1.80;;;20.20;99.90;;;;;;5091945;28;20404;-50
2023/06/02 11:30:46;;;;;;;5.97;1.33;;;20.30;99.90;;;;;;5091185;28;20556;-52
2023/06/02 11:33:12;;;;;;;7.22;1.30;;;20.40;99.90;;;;;;5089543;28;20135;-48
2023/06/02 11:35:40;;;;;;;15.93;2.25;;;20.30;99.90;;;;;;5089600;28;20477;-47
2023/06/02 11:38:11;;;;;;;6.45;1.23;;;20.40;99.90;;;;;;5090539;28;20054;-51
2023/06/02 11:40:37;;;;;;;7.03;1.42;;;20.30;99.90;;;;;;5091046;28;20106;-51
2023/06/02 11:43:03;;;;;;;5.40;1.50;;;20.60;99.90;;;;;;5092986;28;20184;-48
2023/06/02 11:45:30;;;;;;;3.88;1.20;;;20.50;99.90;;;;;;5094879;28;20051;-47
2023/06/02 11:48:05;;;;;;;6.70;1.83;;;20.20;99.90;;;;;;5093976;28;20040;-50
2023/06/02 11:50:31;;;;;;;7.82;1.65;;;20.20;99.90;;;;;;5094032;28;20396;-49
2023/06/02 11:52:57;;;;;;;7.28;1.38;;;20.10;99.90;;;;;;5093266;28;20191;-50
2023/06/02 11:55:31;;;;;;;6.75;1.75;;;19.80;99.90;;;;;;5092435;28;20059;-48
2023/06/02 11:58:39;;;;;;;10.95;1.50;;;19.90;99.90;;;;;;5094215;28;20412;-46
2023/06/02 12:01:09;;;;;;;6.60;1.40;;;19.80;99.90;;;;;;5078953;28;20158;-50
2023/06/02 12:03:36;;;;;;;4.38;1.42;;;19.70;99.90;;;;;;5092238;28;20047;-48
2023/06/02 12:06:28;;;;;;;9.40;2.13;;;19.90;99.90;;;;;;5092615;28;20171;-46
2023/06/02 12:08:55;;;;;;;7.05;1.67;;;19.80;99.90;;;;;;5089031;28;20557;-48
2023/06/02 12:11:23;;;;;;;7.57;2.00;;;19.70;99.90;;;;;;5093860;28;20068;-48
2023/06/02 12:14:03;;;;;;;9.85;2.17;;;19.70;99.90;;;;;;5090200;28;20573;-50
2023/06/02 12:16:29;;;;;;;6.97;2.10;;;19.70;99.90;;;;;;5091844;28;20051;-48
2023/06/02 12:19:14;;;;;;;11.93;2.53;;;19.70;99.90;;;;;;5093717;28;20048;-50
2023/06/02 12:21:40;;;;;;;11.73;2.85;;;20.00;99.90;;;;;;5094834;28;20036;-51
2023/06/02 12:24:07;;;;;;;6.30;2.25;;;19.70;99.90;;;;;;5074311;28;20046;-50
2023/06/02 12:26:45;;;;;;;22.95;2.75;;;19.70;99.90;;;;;;5093868;28;20043;-49
2023/06/02 12:29:12;;;;;;;7.03;2.28;;;19.40;99.90;;;;;;5095636;28;20287;-52
2023/06/02 12:31:38;;;;;;;10.43;2.85;;;19.00;99.90;;;;;;5094079;28;20101;-50
2023/06/02 12:34:07;;;;;;;7.60;2.38;;;18.80;99.90;;;;;;5093656;28;20032;-49
2023/06/02 12:36:33;;;;;;;9.55;2.72;;;19.10;99.90;;;;;;5092150;28;20047;-52
2023/06/02 12:39:00;;;;;;;11.38;3.05;;;18.90;99.90;;;;;;5095565;28;20075;-47
2023/06/02 12:41:26;;;;;;;10.45;2.78;;;18.60;99.90;;;;;;5095376;28;20104;-47
2023/06/02 12:43:52;;;;;;;10.43;2.50;;;18.70;99.90;;;;;;5091930;28;20480;-50
2023/06/02 12:46:18;;;;;;;11.20;3.33;;;18.70;99.90;;;;;;5093212;28;20056;-50